Hilda Lab — WKDT — position and weather

sailwx.info

Track history (hours):
 
Tides and Currents Weather Stations Pressure Air Temp Water Temp Dewpoint Dewpoint Depression Visibility Wind Speed Wind Dir Waves Ship Positions

Hilda Lab

Owner: LABORDE MARINE SERVICES LLC, MORGAN CITY, LA. More information available from US FCC via Universal Licensing System and Coast Guard Vessel Documentation Center.

Last reported at 2017-Sep-07 16:05 UTC. Time now 2017-Sep-20 01:57 UTC.
Position N 29°32' W 090°50'.
Warning: this ship's position is 12 days out of date.

Length 87 m; draft 4 m.

Type: . MMSI: 338536000.

Date/timePositionNaut miles runAvg speedWind from/ knotsBaromVisibWave heightAir tempDewpointWater temp
2017-Sep-07 16:05N 29°32' W 090°50'1 7.1
2017-Sep-07 16:00N 29°32' W 090°50'3 6.7
2017-Sep-07 15:30N 29°32' W 090°46'3 5.5
2017-Sep-07 15:00N 29°34' W 090°43'1 1.6
2017-Sep-07 14:30N 29°34' W 090°43'1 1.2
2017-Sep-07 14:00N 29°34' W 090°42'0 0.0
2017-Sep-07 13:31N 29°34' W 090°42'0 0.0
2017-Sep-07 13:00N 29°34' W 090°42'0 0.0
2017-Sep-07 12:30N 29°34' W 090°42'0 0.0
2017-Sep-07 12:00N 29°34' W 090°42'0 0.0
2017-Sep-07 11:30N 29°34' W 090°42'0 0.0
2017-Sep-07 11:01N 29°34' W 090°42'0 0.0
2017-Sep-07 10:30N 29°34' W 090°42'0 0.0
2017-Sep-07 10:00N 29°34' W 090°42'0 0.0
2017-Sep-07 09:30N 29°34' W 090°42'0 0.0
2017-Sep-07 09:00N 29°34' W 090°42'0 0.0
2017-Sep-07 08:30N 29°34' W 090°42'0 0.0
2017-Sep-07 08:01N 29°34' W 090°42'0 0.0
2017-Sep-07 07:31N 29°34' W 090°42'0 0.0
2017-Sep-07 07:00N 29°34' W 090°42'0 0.0
2017-Sep-07 06:30N 29°34' W 090°42'0 0.0
2017-Sep-07 06:00N 29°34' W 090°42'0 0.0
2017-Sep-07 05:30N 29°34' W 090°42'0 0.0
2017-Sep-07 05:00N 29°34' W 090°42'0 0.0
2017-Sep-07 04:30N 29°34' W 090°42'0 0.0
2017-Sep-07 04:00N 29°34' W 090°42'0 0.0
2017-Sep-07 03:30N 29°34' W 090°42'0 0.0
2017-Sep-07 03:01N 29°34' W 090°42'0 0.0
2017-Sep-07 02:30N 29°34' W 090°42'0 0.0
2017-Sep-07 02:00N 29°34' W 090°42'0 0.0
2017-Sep-07 01:30N 29°34' W 090°42'0 0.0
2017-Sep-07 01:01N 29°34' W 090°42'0 0.0
2017-Sep-07 00:30N 29°34' W 090°42'0 0.0
2017-Sep-07 00:00N 29°34' W 090°42'0 0.0
2017-Sep-06 23:30N 29°34' W 090°42'0 0.0
2017-Sep-06 23:00N 29°34' W 090°42'2 4.3
2017-Sep-06 22:31N 29°32' W 090°42'4 7.0
2017-Sep-06 22:00N 29°28' W 090°43'3 6.8
2017-Sep-06 21:30N 29°25' W 090°44'3 5.6
2017-Sep-06 21:00N 29°22' W 090°44'  
2017-Aug-28 17:20N 29°28' W 090°43'2 7.2
2017-Aug-28 17:00N 29°30' W 090°43'3 6.3
2017-Aug-28 16:30N 29°33' W 090°42'  
Track history (hours):
 
Tides and Currents Weather Stations Pressure Air Temp Water Temp Dewpoint Dewpoint Depression Visibility Wind Speed Wind Dir Waves Ship Positions

Hilda Lab

Owner: LABORDE MARINE SERVICES LLC, MORGAN CITY, LA. More information available from US FCC via Universal Licensing System and Coast Guard Vessel Documentation Center.

Last reported at 2017-Sep-07 16:05 UTC. Time now 2017-Sep-20 01:57 UTC.
Position N 29°32' W 090°50'.
Warning: this ship's position is 12 days out of date.

Length 87 m; draft 4 m.

Type: . MMSI: 338536000.

Date/timePositionNaut miles runAvg speedWind from/ knotsBaromVisibWave heightAir tempDewpointWater temp
2017-Sep-07 16:05N 29°32' W 090°50'1 7.1
2017-Sep-07 16:00N 29°32' W 090°50'3 6.7
2017-Sep-07 15:30N 29°32' W 090°46'3 5.5
2017-Sep-07 15:00N 29°34' W 090°43'1 1.6
2017-Sep-07 14:30N 29°34' W 090°43'1 1.2
2017-Sep-07 14:00N 29°34' W 090°42'0 0.0
2017-Sep-07 13:31N 29°34' W 090°42'0 0.0
2017-Sep-07 13:00N 29°34' W 090°42'0 0.0
2017-Sep-07 12:30N 29°34' W 090°42'0 0.0
2017-Sep-07 12:00N 29°34' W 090°42'0 0.0
2017-Sep-07 11:30N 29°34' W 090°42'0 0.0
2017-Sep-07 11:01N 29°34' W 090°42'0 0.0
2017-Sep-07 10:30N 29°34' W 090°42'0 0.0
2017-Sep-07 10:00N 29°34' W 090°42'0 0.0
2017-Sep-07 09:30N 29°34' W 090°42'0 0.0
2017-Sep-07 09:00N 29°34' W 090°42'0 0.0
2017-Sep-07 08:30N 29°34' W 090°42'0 0.0
2017-Sep-07 08:01N 29°34' W 090°42'0 0.0
2017-Sep-07 07:31N 29°34' W 090°42'0 0.0
2017-Sep-07 07:00N 29°34' W 090°42'0 0.0
2017-Sep-07 06:30N 29°34' W 090°42'0 0.0
2017-Sep-07 06:00N 29°34' W 090°42'0 0.0
2017-Sep-07 05:30N 29°34' W 090°42'0 0.0
2017-Sep-07 05:00N 29°34' W 090°42'0 0.0
2017-Sep-07 04:30N 29°34' W 090°42'0 0.0
2017-Sep-07 04:00N 29°34' W 090°42'0 0.0
2017-Sep-07 03:30N 29°34' W 090°42'0 0.0
2017-Sep-07 03:01N 29°34' W 090°42'0 0.0
2017-Sep-07 02:30N 29°34' W 090°42'0 0.0
2017-Sep-07 02:00N 29°34' W 090°42'0 0.0
2017-Sep-07 01:30N 29°34' W 090°42'0 0.0
2017-Sep-07 01:01N 29°34' W 090°42'0 0.0
2017-Sep-07 00:30N 29°34' W 090°42'0 0.0
2017-Sep-07 00:00N 29°34' W 090°42'0 0.0
2017-Sep-06 23:30N 29°34' W 090°42'0 0.0
2017-Sep-06 23:00N 29°34' W 090°42'2 4.3
2017-Sep-06 22:31N 29°32' W 090°42'4 7.0
2017-Sep-06 22:00N 29°28' W 090°43'3 6.8
2017-Sep-06 21:30N 29°25' W 090°44'3 5.6
2017-Sep-06 21:00N 29°22' W 090°44'  
2017-Aug-28 17:20N 29°28' W 090°43'2 7.2
2017-Aug-28 17:00N 29°30' W 090°43'3 6.3
2017-Aug-28 16:30N 29°33' W 090°42'  

Dump ship's entire track history